sensor_id;sensor_type;location;lat;lon;timestamp;P1;durP1;ratioP1;P2;durP2;ratioP2
75504;SDS011;64085;54.974;73.410;2023-05-25T00:00:09;5.65;;;2.90;;
75504;SDS011;64085;54.974;73.410;2023-05-25T00:02:34;10.48;;;4.15;;
75504;SDS011;64085;54.974;73.410;2023-05-25T00:05:00;7.15;;;4.13;;
75504;SDS011;64085;54.974;73.410;2023-05-25T00:07:26;6.90;;;3.22;;
75504;SDS011;64085;54.974;73.410;2023-05-25T00:09:52;6.70;;;2.92;;
75504;SDS011;64085;54.974;73.410;2023-05-25T00:12:17;8.60;;;3.30;;
75504;SDS011;64085;54.974;73.410;2023-05-25T00:15:01;8.73;;;3.33;;
75504;SDS011;64085;54.974;73.410;2023-05-25T00:17:26;7.25;;;2.88;;
75504;SDS011;64085;54.974;73.410;2023-05-25T00:19:54;6.07;;;2.90;;
75504;SDS011;64085;54.974;73.410;2023-05-25T00:22:22;3.67;;;2.58;;
75504;SDS011;64085;54.974;73.410;2023-05-25T00:24:47;6.07;;;2.63;;
75504;SDS011;64085;54.974;73.410;2023-05-25T00:27:12;5.70;;;2.63;;
75504;SDS011;64085;54.974;73.410;2023-05-25T00:32:22;4.13;;;3.05;;
75504;SDS011;64085;54.974;73.410;2023-05-25T00:34:48;8.77;;;2.85;;
75504;SDS011;64085;54.974;73.410;2023-05-25T00:37:14;10.48;;;3.33;;
75504;SDS011;64085;54.974;73.410;2023-05-25T00:39:40;10.75;;;3.38;;
75504;SDS011;64085;54.974;73.410;2023-05-25T00:42:06;11.63;;;3.65;;
75504;SDS011;64085;54.974;73.410;2023-05-25T00:44:31;10.98;;;2.75;;
75504;SDS011;64085;54.974;73.410;2023-05-25T00:46:58;7.95;;;2.72;;
75504;SDS011;64085;54.974;73.410;2023-05-25T00:49:24;3.50;;;1.90;;
75504;SDS011;64085;54.974;73.410;2023-05-25T00:54:33;8.45;;;2.63;;
75504;SDS011;64085;54.974;73.410;2023-05-25T00:57:02;6.55;;;2.50;;
75504;SDS011;64085;54.974;73.410;2023-05-25T00:59:37;5.65;;;2.97;;
75504;SDS011;64085;54.974;73.410;2023-05-25T01:02:11;10.02;;;3.45;;
75504;SDS011;64085;54.974;73.410;2023-05-25T01:07:25;6.18;;;2.83;;
75504;SDS011;64085;54.974;73.410;2023-05-25T01:09:57;7.97;;;3.47;;
75504;SDS011;64085;54.974;73.410;2023-05-25T01:15:08;10.32;;;3.03;;
75504;SDS011;64085;54.974;73.410;2023-05-25T01:17:33;6.75;;;2.40;;
75504;SDS011;64085;54.974;73.410;2023-05-25T01:20:02;4.45;;;2.53;;
75504;SDS011;64085;54.974;73.410;2023-05-25T01:22:28;10.00;;;3.05;;
75504;SDS011;64085;54.974;73.410;2023-05-25T01:25:18;10.23;;;3.42;;
75504;SDS011;64085;54.974;73.410;2023-05-25T01:30:18;12.15;;;4.35;;
75504;SDS011;64085;54.974;73.410;2023-05-25T01:32:44;9.73;;;4.40;;
75504;SDS011;64085;54.974;73.410;2023-05-25T01:35:10;10.30;;;3.70;;
75504;SDS011;64085;54.974;73.410;2023-05-25T01:37:36;8.60;;;3.75;;
75504;SDS011;64085;54.974;73.410;2023-05-25T01:40:04;11.63;;;4.32;;
75504;SDS011;64085;54.974;73.410;2023-05-25T01:42:30;8.38;;;4.22;;
75504;SDS011;64085;54.974;73.410;2023-05-25T01:50:14;10.45;;;4.38;;
75504;SDS011;64085;54.974;73.410;2023-05-25T01:52:47;11.90;;;4.32;;
75504;SDS011;64085;54.974;73.410;2023-05-25T01:55:16;13.38;;;5.07;;
75504;SDS011;64085;54.974;73.410;2023-05-25T01:57:45;9.48;;;4.28;;
75504;SDS011;64085;54.974;73.410;2023-05-25T02:00:11;16.08;;;4.32;;
75504;SDS011;64085;54.974;73.410;2023-05-25T02:02:37;11.10;;;4.88;;
75504;SDS011;64085;54.974;73.410;2023-05-25T02:05:03;14.13;;;5.47;;
75504;SDS011;64085;54.974;73.410;2023-05-25T02:07:28;10.63;;;4.95;;
75504;SDS011;64085;54.974;73.410;2023-05-25T02:09:54;8.07;;;4.18;;
75504;SDS011;64085;54.974;73.410;2023-05-25T02:15:04;11.85;;;5.05;;
75504;SDS011;64085;54.974;73.410;2023-05-25T02:17:29;11.43;;;4.88;;
75504;SDS011;64085;54.974;73.410;2023-05-25T02:19:55;9.98;;;5.10;;
75504;SDS011;64085;54.974;73.410;2023-05-25T02:22:20;13.82;;;4.47;;
75504;SDS011;64085;54.974;73.410;2023-05-25T02:24:46;12.40;;;4.28;;
75504;SDS011;64085;54.974;73.410;2023-05-25T02:27:12;12.10;;;4.85;;
75504;SDS011;64085;54.974;73.410;2023-05-25T02:32:21;15.25;;;4.85;;
75504;SDS011;64085;54.974;73.410;2023-05-25T02:34:46;11.48;;;4.38;;
75504;SDS011;64085;54.974;73.410;2023-05-25T02:37:12;9.25;;;4.95;;
75504;SDS011;64085;54.974;73.410;2023-05-25T02:39:38;12.93;;;4.40;;
75504;SDS011;64085;54.974;73.410;2023-05-25T02:42:03;18.88;;;6.07;;
75504;SDS011;64085;54.974;73.410;2023-05-25T02:44:29;7.72;;;4.35;;
75504;SDS011;64085;54.974;73.410;2023-05-25T02:46:55;13.75;;;5.13;;
75504;SDS011;64085;54.974;73.410;2023-05-25T02:49:20;11.35;;;4.55;;
75504;SDS011;64085;54.974;73.410;2023-05-25T02:51:45;14.43;;;5.45;;
75504;SDS011;64085;54.974;73.410;2023-05-25T02:56:55;11.57;;;5.80;;
75504;SDS011;64085;54.974;73.410;2023-05-25T02:59:20;14.52;;;5.22;;
75504;SDS011;64085;54.974;73.410;2023-05-25T03:01:46;17.05;;;5.20;;
75504;SDS011;64085;54.974;73.410;2023-05-25T03:06:58;15.25;;;5.65;;
75504;SDS011;64085;54.974;73.410;2023-05-25T03:09:23;23.08;;;5.43;;
75504;SDS011;64085;54.974;73.410;2023-05-25T03:11:48;18.50;;;6.00;;
75504;SDS011;64085;54.974;73.410;2023-05-25T03:14:14;14.88;;;5.30;;
75504;SDS011;64085;54.974;73.410;2023-05-25T03:16:40;16.85;;;5.68;;
75504;SDS011;64085;54.974;73.410;2023-05-25T03:19:05;15.23;;;5.00;;
75504;SDS011;64085;54.974;73.410;2023-05-25T03:21:31;13.55;;;5.72;;
75504;SDS011;64085;54.974;73.410;2023-05-25T03:23:57;16.45;;;4.95;;
75504;SDS011;64085;54.974;73.410;2023-05-25T03:26:23;15.90;;;5.57;;
75504;SDS011;64085;54.974;73.410;2023-05-25T03:28:50;13.18;;;5.35;;
75504;SDS011;64085;54.974;73.410;2023-05-25T03:31:15;13.13;;;5.68;;
75504;SDS011;64085;54.974;73.410;2023-05-25T03:33:41;11.23;;;4.95;;
75504;SDS011;64085;54.974;73.410;2023-05-25T03:36:09;13.85;;;4.20;;
75504;SDS011;64085;54.974;73.410;2023-05-25T03:38:36;17.98;;;5.97;;
75504;SDS011;64085;54.974;73.410;2023-05-25T03:44:04;13.52;;;5.50;;
75504;SDS011;64085;54.974;73.410;2023-05-25T03:49:14;13.00;;;6.78;;
75504;SDS011;64085;54.974;73.410;2023-05-25T03:54:25;14.98;;;7.85;;
75504;SDS011;64085;54.974;73.410;2023-05-25T03:56:51;17.50;;;8.63;;
75504;SDS011;64085;54.974;73.410;2023-05-25T03:59:16;11.43;;;8.25;;
75504;SDS011;64085;54.974;73.410;2023-05-25T04:01:43;13.45;;;8.95;;
75504;SDS011;64085;54.974;73.410;2023-05-25T04:04:08;13.10;;;9.23;;
75504;SDS011;64085;54.974;73.410;2023-05-25T04:06:34;18.08;;;10.02;;
75504;SDS011;64085;54.974;73.410;2023-05-25T04:09:01;15.05;;;10.05;;
75504;SDS011;64085;54.974;73.410;2023-05-25T04:11:28;14.95;;;10.27;;
75504;SDS011;64085;54.974;73.410;2023-05-25T04:13:54;18.95;;;9.70;;
75504;SDS011;64085;54.974;73.410;2023-05-25T04:16:19;13.43;;;8.85;;
75504;SDS011;64085;54.974;73.410;2023-05-25T04:19:03;18.27;;;9.45;;
75504;SDS011;64085;54.974;73.410;2023-05-25T04:21:28;17.60;;;10.77;;
75504;SDS011;64085;54.974;73.410;2023-05-25T04:23:54;18.38;;;9.52;;
75504;SDS011;64085;54.974;73.410;2023-05-25T04:26:38;13.63;;;8.20;;
75504;SDS011;64085;54.974;73.410;2023-05-25T04:29:04;14.05;;;9.40;;
75504;SDS011;64085;54.974;73.410;2023-05-25T04:31:31;18.38;;;10.70;;
75504;SDS011;64085;54.974;73.410;2023-05-25T04:33:56;16.73;;;10.50;;
75504;SDS011;64085;54.974;73.410;2023-05-25T04:36:23;17.25;;;8.93;;
75504;SDS011;64085;54.974;73.410;2023-05-25T04:38:48;14.45;;;9.20;;
75504;SDS011;64085;54.974;73.410;2023-05-25T04:41:16;17.88;;;11.77;;
75504;SDS011;64085;54.974;73.410;2023-05-25T04:43:41;19.58;;;11.35;;
75504;SDS011;64085;54.974;73.410;2023-05-25T04:46:10;14.98;;;9.95;;
75504;SDS011;64085;54.974;73.410;2023-05-25T04:48:35;15.43;;;10.05;;
75504;SDS011;64085;54.974;73.410;2023-05-25T04:51:02;14.50;;;9.52;;
75504;SDS011;64085;54.974;73.410;2023-05-25T04:53:28;18.48;;;10.15;;
75504;SDS011;64085;54.974;73.410;2023-05-25T04:55:54;18.42;;;9.93;;
75504;SDS011;64085;54.974;73.410;2023-05-25T04:58:20;14.57;;;9.57;;
75504;SDS011;64085;54.974;73.410;2023-05-25T05:00:46;15.32;;;10.43;;
75504;SDS011;64085;54.974;73.410;2023-05-25T05:03:12;18.17;;;9.35;;
75504;SDS011;64085;54.974;73.410;2023-05-25T05:08:21;16.58;;;10.10;;
75504;SDS011;64085;54.974;73.410;2023-05-25T05:10:47;21.83;;;10.52;;
75504;SDS011;64085;54.974;73.410;2023-05-25T05:13:12;19.33;;;10.07;;
75504;SDS011;64085;54.974;73.410;2023-05-25T05:15:38;17.27;;;11.38;;
75504;SDS011;64085;54.974;73.410;2023-05-25T05:20:47;16.83;;;12.38;;
75504;SDS011;64085;54.974;73.410;2023-05-25T05:23:13;17.75;;;11.35;;
75504;SDS011;64085;54.974;73.410;2023-05-25T05:25:38;18.80;;;11.32;;
75504;SDS011;64085;54.974;73.410;2023-05-25T05:28:04;14.32;;;11.02;;
75504;SDS011;64085;54.974;73.410;2023-05-25T05:30:30;21.70;;;12.35;;
75504;SDS011;64085;54.974;73.410;2023-05-25T05:32:55;18.23;;;12.25;;
75504;SDS011;64085;54.974;73.410;2023-05-25T05:35:39;18.83;;;12.85;;
75504;SDS011;64085;54.974;73.410;2023-05-25T05:38:04;20.48;;;12.45;;
75504;SDS011;64085;54.974;73.410;2023-05-25T05:40:30;22.35;;;12.75;;
75504;SDS011;64085;54.974;73.410;2023-05-25T05:42:55;16.95;;;11.50;;
75504;SDS011;64085;54.974;73.410;2023-05-25T05:45:21;20.92;;;13.18;;
75504;SDS011;64085;54.974;73.410;2023-05-25T05:50:33;23.15;;;13.82;;
75504;SDS011;64085;54.974;73.410;2023-05-25T05:52:59;23.27;;;15.45;;
75504;SDS011;64085;54.974;73.410;2023-05-25T05:55:25;19.42;;;13.80;;
75504;SDS011;64085;54.974;73.410;2023-05-25T06:06:21;18.83;;;13.35;;
75504;SDS011;64085;54.974;73.410;2023-05-25T06:08:46;18.95;;;13.40;;
75504;SDS011;64085;54.974;73.410;2023-05-25T06:11:12;20.35;;;14.13;;
75504;SDS011;64085;54.974;73.410;2023-05-25T06:13:37;19.55;;;13.90;;
75504;SDS011;64085;54.974;73.410;2023-05-25T06:16:03;21.42;;;13.57;;
75504;SDS011;64085;54.974;73.410;2023-05-25T06:18:43;19.15;;;13.60;;
75504;SDS011;64085;54.974;73.410;2023-05-25T06:23:34;25.43;;;15.40;;
75504;SDS011;64085;54.974;73.410;2023-05-25T06:26:03;25.65;;;15.45;;
75504;SDS011;64085;54.974;73.410;2023-05-25T06:28:29;24.35;;;14.93;;
75504;SDS011;64085;54.974;73.410;2023-05-25T06:33:39;21.83;;;14.00;;
75504;SDS011;64085;54.974;73.410;2023-05-25T06:36:04;20.92;;;14.48;;
75504;SDS011;64085;54.974;73.410;2023-05-25T06:38:30;20.48;;;14.52;;
75504;SDS011;64085;54.974;73.410;2023-05-25T06:41:14;24.42;;;14.82;;
75504;SDS011;64085;54.974;73.410;2023-05-25T06:43:58;24.02;;;14.90;;
75504;SDS011;64085;54.974;73.410;2023-05-25T06:46:23;23.23;;;14.32;;
75504;SDS011;64085;54.974;73.410;2023-05-25T06:48:49;24.40;;;13.93;;
75504;SDS011;64085;54.974;73.410;2023-05-25T06:51:14;27.67;;;14.32;;
75504;SDS011;64085;54.974;73.410;2023-05-25T06:53:40;21.10;;;12.70;;
75504;SDS011;64085;54.974;73.410;2023-05-25T06:56:05;19.85;;;13.77;;
75504;SDS011;64085;54.974;73.410;2023-05-25T06:58:31;20.10;;;13.45;;
75504;SDS011;64085;54.974;73.410;2023-05-25T07:03:41;22.38;;;13.55;;
75504;SDS011;64085;54.974;73.410;2023-05-25T07:06:06;18.48;;;12.18;;
75504;SDS011;64085;54.974;73.410;2023-05-25T07:08:32;16.00;;;12.35;;
75504;SDS011;64085;54.974;73.410;2023-05-25T07:10:57;16.17;;;12.27;;
75504;SDS011;64085;54.974;73.410;2023-05-25T07:13:22;20.65;;;11.98;;
75504;SDS011;64085;54.974;73.410;2023-05-25T07:18:32;19.00;;;11.38;;
75504;SDS011;64085;54.974;73.410;2023-05-25T07:20:57;18.52;;;12.50;;
75504;SDS011;64085;54.974;73.410;2023-05-25T07:26:07;27.13;;;12.45;;
75504;SDS011;64085;54.974;73.410;2023-05-25T07:28:32;25.65;;;11.60;;
75504;SDS011;64085;54.974;73.410;2023-05-25T07:30:58;27.92;;;11.82;;
75504;SDS011;64085;54.974;73.410;2023-05-25T07:33:23;24.33;;;10.98;;
75504;SDS011;64085;54.974;73.410;2023-05-25T07:35:49;26.67;;;9.75;;
75504;SDS011;64085;54.974;73.410;2023-05-25T07:38:15;18.15;;;10.10;;
75504;SDS011;64085;54.974;73.410;2023-05-25T07:40:41;20.25;;;10.70;;
75504;SDS011;64085;54.974;73.410;2023-05-25T07:43:07;14.93;;;9.80;;
75504;SDS011;64085;54.974;73.410;2023-05-25T07:48:17;12.00;;;9.38;;
75504;SDS011;64085;54.974;73.410;2023-05-25T07:50:42;10.95;;;8.88;;
75504;SDS011;64085;54.974;73.410;2023-05-25T07:53:08;15.85;;;8.98;;
75504;SDS011;64085;54.974;73.410;2023-05-25T07:55:33;15.32;;;10.02;;
75504;SDS011;64085;54.974;73.410;2023-05-25T07:57:58;11.63;;;8.50;;
75504;SDS011;64085;54.974;73.410;2023-05-25T08:00:24;17.60;;;8.40;;
75504;SDS011;64085;54.974;73.410;2023-05-25T08:05:33;11.20;;;7.35;;
75504;SDS011;64085;54.974;73.410;2023-05-25T08:07:59;10.48;;;7.90;;
75504;SDS011;64085;54.974;73.410;2023-05-25T08:10:24;11.52;;;7.82;;
75504;SDS011;64085;54.974;73.410;2023-05-25T08:12:55;12.23;;;7.97;;
75504;SDS011;64085;54.974;73.410;2023-05-25T08:15:20;13.35;;;7.72;;
75504;SDS011;64085;54.974;73.410;2023-05-25T08:17:46;11.15;;;8.15;;
75504;SDS011;64085;54.974;73.410;2023-05-25T08:20:14;17.10;;;7.75;;
75504;SDS011;64085;54.974;73.410;2023-05-25T08:22:40;11.40;;;7.45;;
75504;SDS011;64085;54.974;73.410;2023-05-25T08:25:06;9.90;;;7.53;;
75504;SDS011;64085;54.974;73.410;2023-05-25T08:30:34;11.20;;;7.63;;
75504;SDS011;64085;54.974;73.410;2023-05-25T08:33:00;10.82;;;7.72;;
75504;SDS011;64085;54.974;73.410;2023-05-25T08:38:09;14.02;;;8.13;;
75504;SDS011;64085;54.974;73.410;2023-05-25T08:41:03;11.23;;;6.80;;
75504;SDS011;64085;54.974;73.410;2023-05-25T08:43:47;10.15;;;7.03;;
75504;SDS011;64085;54.974;73.410;2023-05-25T08:46:13;10.57;;;7.57;;
75504;SDS011;64085;54.974;73.410;2023-05-25T08:48:39;10.98;;;7.65;;
75504;SDS011;64085;54.974;73.410;2023-05-25T08:51:05;14.00;;;8.13;;
75504;SDS011;64085;54.974;73.410;2023-05-25T08:53:33;11.73;;;7.78;;
75504;SDS011;64085;54.974;73.410;2023-05-25T08:55:59;11.88;;;9.10;;
75504;SDS011;64085;54.974;73.410;2023-05-25T08:58:29;12.13;;;9.15;;
75504;SDS011;64085;54.974;73.410;2023-05-25T09:00:58;12.90;;;9.68;;
75504;SDS011;64085;54.974;73.410;2023-05-25T09:06:10;14.80;;;10.32;;
75504;SDS011;64085;54.974;73.410;2023-05-25T09:08:36;15.95;;;11.15;;
75504;SDS011;64085;54.974;73.410;2023-05-25T09:11:04;15.48;;;11.20;;
75504;SDS011;64085;54.974;73.410;2023-05-25T09:13:30;16.65;;;11.48;;
75504;SDS011;64085;54.974;73.410;2023-05-25T09:15:55;16.45;;;11.48;;
75504;SDS011;64085;54.974;73.410;2023-05-25T09:18:21;18.30;;;11.35;;
75504;SDS011;64085;54.974;73.410;2023-05-25T09:21:05;12.93;;;10.27;;
75504;SDS011;64085;54.974;73.410;2023-05-25T09:23:30;17.92;;;12.23;;
75504;SDS011;64085;54.974;73.410;2023-05-25T09:26:14;14.13;;;10.68;;
75504;SDS011;64085;54.974;73.410;2023-05-25T09:28:58;12.70;;;11.07;;
75504;SDS011;64085;54.974;73.410;2023-05-25T09:31:25;14.20;;;11.35;;
75504;SDS011;64085;54.974;73.410;2023-05-25T09:33:50;18.83;;;10.05;;
75504;SDS011;64085;54.974;73.410;2023-05-25T09:36:19;15.20;;;10.98;;
75504;SDS011;64085;54.974;73.410;2023-05-25T09:41:31;15.57;;;10.77;;
75504;SDS011;64085;54.974;73.410;2023-05-25T09:44:14;15.63;;;10.18;;
75504;SDS011;64085;54.974;73.410;2023-05-25T09:46:40;12.63;;;11.05;;
75504;SDS011;64085;54.974;73.410;2023-05-25T09:49:06;13.25;;;10.48;;
75504;SDS011;64085;54.974;73.410;2023-05-25T09:51:50;12.80;;;10.52;;
75504;SDS011;64085;54.974;73.410;2023-05-25T09:54:16;16.17;;;10.05;;
75504;SDS011;64085;54.974;73.410;2023-05-25T09:56:41;13.70;;;10.50;;
75504;SDS011;64085;54.974;73.410;2023-05-25T09:59:06;11.55;;;9.63;;
75504;SDS011;64085;54.974;73.410;2023-05-25T10:01:38;17.63;;;11.73;;
75504;SDS011;64085;54.974;73.410;2023-05-25T10:04:04;16.13;;;10.48;;
75504;SDS011;64085;54.974;73.410;2023-05-25T10:06:30;12.45;;;10.25;;
75504;SDS011;64085;54.974;73.410;2023-05-25T10:08:57;16.02;;;10.48;;
75504;SDS011;64085;54.974;73.410;2023-05-25T10:11:41;13.55;;;9.73;;
75504;SDS011;64085;54.974;73.410;2023-05-25T10:14:08;16.17;;;9.32;;
75504;SDS011;64085;54.974;73.410;2023-05-25T10:16:53;15.32;;;9.82;;
75504;SDS011;64085;54.974;73.410;2023-05-25T10:19:19;13.88;;;10.07;;
75504;SDS011;64085;54.974;73.410;2023-05-25T10:24:37;21.67;;;10.57;;
75504;SDS011;64085;54.974;73.410;2023-05-25T10:26:58;14.23;;;9.00;;
75504;SDS011;64085;54.974;73.410;2023-05-25T10:29:26;11.52;;;9.30;;
75504;SDS011;64085;54.974;73.410;2023-05-25T10:32:11;11.80;;;8.45;;
75504;SDS011;64085;54.974;73.410;2023-05-25T10:34:37;11.20;;;8.75;;
75504;SDS011;64085;54.974;73.410;2023-05-25T10:39:46;10.55;;;6.97;;
75504;SDS011;64085;54.974;73.410;2023-05-25T10:42:13;11.85;;;7.30;;
75504;SDS011;64085;54.974;73.410;2023-05-25T10:44:41;11.82;;;7.03;;
75504;SDS011;64085;54.974;73.410;2023-05-25T10:47:07;11.30;;;7.22;;
75504;SDS011;64085;54.974;73.410;2023-05-25T10:49:34;6.40;;;5.15;;
75504;SDS011;64085;54.974;73.410;2023-05-25T10:52:33;7.88;;;5.40;;
75504;SDS011;64085;54.974;73.410;2023-05-25T10:54:59;6.90;;;5.90;;
75504;SDS011;64085;54.974;73.410;2023-05-25T10:57:29;7.32;;;5.07;;
75504;SDS011;64085;54.974;73.410;2023-05-25T11:02:51;8.60;;;5.60;;
75504;SDS011;64085;54.974;73.410;2023-05-25T11:07:53;14.40;;;8.98;;
75504;SDS011;64085;54.974;73.410;2023-05-25T11:13:20;12.48;;;7.10;;
75504;SDS011;64085;54.974;73.410;2023-05-25T11:15:46;11.18;;;7.13;;
75504;SDS011;64085;54.974;73.410;2023-05-25T11:18:14;15.05;;;7.65;;
75504;SDS011;64085;54.974;73.410;2023-05-25T11:20:40;12.05;;;6.47;;
75504;SDS011;64085;54.974;73.410;2023-05-25T11:23:21;10.63;;;6.22;;
75504;SDS011;64085;54.974;73.410;2023-05-25T11:28:12;11.87;;;8.13;;
75504;SDS011;64085;54.974;73.410;2023-05-25T11:33:21;7.60;;;6.40;;
75504;SDS011;64085;54.974;73.410;2023-05-25T11:35:47;13.60;;;7.70;;
75504;SDS011;64085;54.974;73.410;2023-05-25T11:38:14;11.57;;;6.72;;
75504;SDS011;64085;54.974;73.410;2023-05-25T11:40:40;8.93;;;6.82;;
75504;SDS011;64085;54.974;73.410;2023-05-25T11:43:05;9.35;;;6.88;;
75504;SDS011;64085;54.974;73.410;2023-05-25T11:45:32;11.13;;;8.50;;
75504;SDS011;64085;54.974;73.410;2023-05-25T11:48:16;16.98;;;12.05;;
75504;SDS011;64085;54.974;73.410;2023-05-25T11:50:42;13.13;;;8.02;;
75504;SDS011;64085;54.974;73.410;2023-05-25T11:53:07;10.80;;;7.95;;
75504;SDS011;64085;54.974;73.410;2023-05-25T11:55:34;11.88;;;9.35;;
75504;SDS011;64085;54.974;73.410;2023-05-25T12:00:44;10.88;;;8.02;;
75504;SDS011;64085;54.974;73.410;2023-05-25T12:03:28;10.60;;;8.13;;
75504;SDS011;64085;54.974;73.410;2023-05-25T12:05:55;13.95;;;10.95;;
75504;SDS011;64085;54.974;73.410;2023-05-25T12:08:33;17.90;;;11.25;;
75504;SDS011;64085;54.974;73.410;2023-05-25T12:10:59;13.00;;;10.57;;
75504;SDS011;64085;54.974;73.410;2023-05-25T12:13:25;18.02;;;8.90;;
75504;SDS011;64085;54.974;73.410;2023-05-25T12:15:53;11.65;;;7.20;;
75504;SDS011;64085;54.974;73.410;2023-05-25T12:18:19;9.95;;;6.07;;
75504;SDS011;64085;54.974;73.410;2023-05-25T12:20:45;10.07;;;7.82;;
75504;SDS011;64085;54.974;73.410;2023-05-25T12:23:10;13.60;;;8.25;;
75504;SDS011;64085;54.974;73.410;2023-05-25T12:25:36;15.60;;;9.27;;
75504;SDS011;64085;54.974;73.410;2023-05-25T12:28:08;14.48;;;9.50;;
75504;SDS011;64085;54.974;73.410;2023-05-25T12:30:35;10.32;;;6.80;;
75504;SDS011;64085;54.974;73.410;2023-05-25T12:33:00;11.55;;;6.75;;
75504;SDS011;64085;54.974;73.410;2023-05-25T12:35:26;7.10;;;4.55;;
75504;SDS011;64085;54.974;73.410;2023-05-25T12:40:36;6.63;;;3.50;;
75504;SDS011;64085;54.974;73.410;2023-05-25T12:43:02;6.00;;;3.95;;
75504;SDS011;64085;54.974;73.410;2023-05-25T12:45:27;5.32;;;2.95;;
75504;SDS011;64085;54.974;73.410;2023-05-25T12:47:53;4.78;;;3.15;;
75504;SDS011;64085;54.974;73.410;2023-05-25T12:50:18;9.32;;;3.63;;
75504;SDS011;64085;54.974;73.410;2023-05-25T12:52:45;4.00;;;2.80;;
75504;SDS011;64085;54.974;73.410;2023-05-25T12:55:20;3.58;;;2.28;;
75504;SDS011;64085;54.974;73.410;2023-05-25T12:57:46;3.33;;;2.00;;
75504;SDS011;64085;54.974;73.410;2023-05-25T13:00:34;5.05;;;2.33;;
75504;SDS011;64085;54.974;73.410;2023-05-25T13:03:01;5.40;;;2.40;;
75504;SDS011;64085;54.974;73.410;2023-05-25T13:05:27;4.80;;;2.65;;
75504;SDS011;64085;54.974;73.410;2023-05-25T13:07:56;4.25;;;2.03;;
75504;SDS011;64085;54.974;73.410;2023-05-25T13:10:21;2.38;;;1.20;;
75504;SDS011;64085;54.974;73.410;2023-05-25T13:12:49;5.93;;;2.33;;
75504;SDS011;64085;54.974;73.410;2023-05-25T13:15:16;4.03;;;1.38;;
75504;SDS011;64085;54.974;73.410;2023-05-25T13:17:51;13.95;;;2.80;;
75504;SDS011;64085;54.974;73.410;2023-05-25T13:20:21;17.90;;;3.70;;
75504;SDS011;64085;54.974;73.410;2023-05-25T13:22:48;5.05;;;1.85;;
75504;SDS011;64085;54.974;73.410;2023-05-25T13:25:14;6.47;;;1.98;;
75504;SDS011;64085;54.974;73.410;2023-05-25T13:27:44;4.47;;;2.53;;
75504;SDS011;64085;54.974;73.410;2023-05-25T13:32:54;11.63;;;4.03;;
75504;SDS011;64085;54.974;73.410;2023-05-25T13:35:19;24.83;;;5.40;;
75504;SDS011;64085;54.974;73.410;2023-05-25T13:38:05;5.55;;;1.90;;
75504;SDS011;64085;54.974;73.410;2023-05-25T13:40:30;3.72;;;2.10;;
75504;SDS011;64085;54.974;73.410;2023-05-25T13:42:56;7.00;;;2.08;;
75504;SDS011;64085;54.974;73.410;2023-05-25T13:45:40;3.45;;;1.60;;
75504;SDS011;64085;54.974;73.410;2023-05-25T13:48:05;2.28;;;1.90;;
75504;SDS011;64085;54.974;73.410;2023-05-25T13:50:30;4.93;;;2.08;;
75504;SDS011;64085;54.974;73.410;2023-05-25T13:52:56;2.75;;;1.83;;
75504;SDS011;64085;54.974;73.410;2023-05-25T13:55:21;2.55;;;1.55;;
75504;SDS011;64085;54.974;73.410;2023-05-25T13:57:47;4.57;;;2.40;;
75504;SDS011;64085;54.974;73.410;2023-05-25T14:03:15;4.20;;;1.90;;
75504;SDS011;64085;54.974;73.410;2023-05-25T14:05:41;1.10;;;0.90;;
75504;SDS011;64085;54.974;73.410;2023-05-25T14:08:07;5.20;;;1.98;;
75504;SDS011;64085;54.974;73.410;2023-05-25T14:10:32;4.97;;;1.85;;
75504;SDS011;64085;54.974;73.410;2023-05-25T14:12:58;5.38;;;2.00;;
75504;SDS011;64085;54.974;73.410;2023-05-25T14:15:23;3.53;;;1.80;;
75504;SDS011;64085;54.974;73.410;2023-05-25T14:17:49;5.25;;;2.20;;
75504;SDS011;64085;54.974;73.410;2023-05-25T14:23:17;6.90;;;2.40;;
75504;SDS011;64085;54.974;73.410;2023-05-25T14:25:43;5.70;;;2.75;;
75504;SDS011;64085;54.974;73.410;2023-05-25T14:28:08;3.47;;;2.80;;
75504;SDS011;64085;54.974;73.410;2023-05-25T14:30:35;5.68;;;2.78;;
75504;SDS011;64085;54.974;73.410;2023-05-25T14:33:00;12.27;;;4.22;;
75504;SDS011;64085;54.974;73.410;2023-05-25T14:35:25;8.32;;;2.90;;
75504;SDS011;64085;54.974;73.410;2023-05-25T14:37:51;10.07;;;3.38;;
75504;SDS011;64085;54.974;73.410;2023-05-25T14:40:16;6.78;;;3.55;;
75504;SDS011;64085;54.974;73.410;2023-05-25T14:42:42;8.70;;;3.78;;
75504;SDS011;64085;54.974;73.410;2023-05-25T14:45:07;2.58;;;2.13;;
75504;SDS011;64085;54.974;73.410;2023-05-25T14:47:33;2.85;;;2.33;;
75504;SDS011;64085;54.974;73.410;2023-05-25T14:49:58;7.65;;;2.83;;
75504;SDS011;64085;54.974;73.410;2023-05-25T14:52:23;5.82;;;2.47;;
75504;SDS011;64085;54.974;73.410;2023-05-25T14:54:49;5.70;;;3.33;;
75504;SDS011;64085;54.974;73.410;2023-05-25T14:57:14;4.38;;;2.97;;
75504;SDS011;64085;54.974;73.410;2023-05-25T14:59:40;5.85;;;3.00;;
75504;SDS011;64085;54.974;73.410;2023-05-25T15:02:05;7.00;;;3.08;;
75504;SDS011;64085;54.974;73.410;2023-05-25T15:04:32;8.73;;;2.60;;
75504;SDS011;64085;54.974;73.410;2023-05-25T15:06:57;6.38;;;2.75;;
75504;SDS011;64085;54.974;73.410;2023-05-25T15:12:07;2.95;;;1.90;;
75504;SDS011;64085;54.974;73.410;2023-05-25T15:14:33;4.57;;;1.98;;
75504;SDS011;64085;54.974;73.410;2023-05-25T15:17:17;6.38;;;2.60;;
75504;SDS011;64085;54.974;73.410;2023-05-25T15:19:54;2.65;;;1.98;;
75504;SDS011;64085;54.974;73.410;2023-05-25T15:22:20;5.78;;;3.03;;
75504;SDS011;64085;54.974;73.410;2023-05-25T15:24:45;6.70;;;3.20;;
75504;SDS011;64085;54.974;73.410;2023-05-25T15:27:11;5.68;;;2.42;;
75504;SDS011;64085;54.974;73.410;2023-05-25T15:29:37;5.85;;;2.72;;
75504;SDS011;64085;54.974;73.410;2023-05-25T15:32:02;6.13;;;2.90;;
75504;SDS011;64085;54.974;73.410;2023-05-25T15:34:28;6.60;;;2.97;;
75504;SDS011;64085;54.974;73.410;2023-05-25T15:36:53;4.45;;;2.17;;
75504;SDS011;64085;54.974;73.410;2023-05-25T15:39:19;4.20;;;2.42;;
75504;SDS011;64085;54.974;73.410;2023-05-25T15:41:45;5.50;;;2.28;;
75504;SDS011;64085;54.974;73.410;2023-05-25T15:44:12;6.38;;;2.63;;
75504;SDS011;64085;54.974;73.410;2023-05-25T15:46:38;4.63;;;2.35;;
75504;SDS011;64085;54.974;73.410;2023-05-25T15:49:04;6.82;;;2.45;;
75504;SDS011;64085;54.974;73.410;2023-05-25T15:51:35;12.38;;;3.40;;
75504;SDS011;64085;54.974;73.410;2023-05-25T15:54:01;3.00;;;2.33;;
75504;SDS011;64085;54.974;73.410;2023-05-25T15:56:27;3.92;;;2.05;;
75504;SDS011;64085;54.974;73.410;2023-05-25T15:58:52;4.60;;;2.30;;
75504;SDS011;64085;54.974;73.410;2023-05-25T16:01:19;4.50;;;2.40;;
75504;SDS011;64085;54.974;73.410;2023-05-25T16:03:44;4.55;;;2.67;;
75504;SDS011;64085;54.974;73.410;2023-05-25T16:06:09;4.22;;;1.90;;
75504;SDS011;64085;54.974;73.410;2023-05-25T16:08:35;5.07;;;2.58;;
75504;SDS011;64085;54.974;73.410;2023-05-25T16:11:01;6.40;;;2.28;;
75504;SDS011;64085;54.974;73.410;2023-05-25T16:13:27;8.15;;;3.40;;
75504;SDS011;64085;54.974;73.410;2023-05-25T16:15:53;6.30;;;3.63;;
75504;SDS011;64085;54.974;73.410;2023-05-25T16:21:02;7.78;;;4.10;;
75504;SDS011;64085;54.974;73.410;2023-05-25T16:23:28;4.72;;;3.28;;
75504;SDS011;64085;54.974;73.410;2023-05-25T16:25:54;5.88;;;2.08;;
75504;SDS011;64085;54.974;73.410;2023-05-25T16:28:19;4.45;;;3.00;;